Terminal Aerodrome Forecast
Issued by NWS

Current Version | Previous Version | Graphics & Text | Print | Product List | Glossary On
Versions: 1 2 3 4 5 6 7 8 9 10 11 12 13
000
FTUS41 KRNK 262336
TAFLWB
TAF
KLWB 262336Z 2700/2724 24005KT P6SM BKN080
     FM270500 00000KT 2SM BR SCT002 OVC050
      TEMPO 2709/2711 1/4SM FG VV001
     FM271400 25003KT P6SM SCT012
     FM272000 22005KT P6SM BKN040=

USA.gov is the U.S. government's official web portal to all federal, state and local government web resources and services.